Time;durP1;ratioP1;P1;durP2;ratioP2;P2;SDS_P1;SDS_P2;PMS_P1;PMS_P2;Temp;Humidity;BMP_temperature;BMP_pressure;BME280_temperature;BME280_humidity;BME280_pressure;Samples;Min_cycle;Max_cycle;Signal;HPM_P1;HPM_P2
2023/03/15 00:01:40;;;;;;;;;10.25;10.00;;;;;9.28;55.28;101230.38;5135888;27;45416;-73
2023/03/15 00:04:06;;;;;;;;;10.25;10.25;;;;;9.12;55.32;101218.81;5135349;27;45516;-75
2023/03/15 00:06:32;;;;;;;;;11.75;9.50;;;;;9.08;55.70;101232.66;5135106;27;45404;-73
2023/03/15 00:09:00;;;;;;;;;10.00;9.25;;;;;9.11;55.53;101221.38;5117449;27;45399;-74
2023/03/15 00:11:27;;;;;;;;;13.25;9.75;;;;;9.17;55.69;101234.56;5113492;27;45841;-73
2023/03/15 00:13:53;;;;;;;;;11.00;8.50;;;;;9.16;55.66;101232.81;5135600;27;45301;-74
2023/03/15 00:16:18;;;;;;;;;9.75;9.25;;;;;9.12;55.62;101220.53;5137815;27;45450;-73
2023/03/15 00:18:47;;;;;;;;;10.25;9.00;;;;;9.14;55.98;101237.13;5135405;27;45726;-72
2023/03/15 00:21:12;;;;;;;;;9.00;7.75;;;;;9.15;55.62;101227.56;5133005;27;45365;-72
2023/03/15 00:23:38;;;;;;;;;13.25;9.50;;;;;9.23;56.08;101237.28;5112069;27;46548;-73
2023/03/15 00:26:04;;;;;;;;;11.50;11.50;;;;;9.16;55.89;101230.19;5134892;27;45854;-73
2023/03/15 00:28:29;;;;;;;;;9.75;8.25;;;;;9.11;55.99;101231.84;5136978;27;45431;-75
2023/03/15 00:31:03;;;;;;;;;9.50;9.50;;;;;8.99;56.40;101229.03;5139130;27;45380;-75
2023/03/15 00:33:33;;;;;;;;;10.50;9.25;;;;;8.92;56.19;101207.13;5118119;27;46206;-74
2023/03/15 00:36:03;;;;;;;;;11.75;11.75;;;;;9.06;56.30;101238.72;5125067;27;45545;-75
2023/03/15 00:38:28;;;;;;;;;8.00;7.75;;;;;9.03;56.71;101244.78;5134546;27;45556;-75
2023/03/15 00:40:54;;;;;;;;;11.00;9.75;;;;;9.05;56.18;101239.59;5143040;27;45460;-75
2023/03/15 00:43:19;;;;;;;;;9.25;7.75;;;;;9.03;56.37;101229.09;5142621;27;45415;-75
2023/03/15 00:45:45;;;;;;;;;8.00;7.50;;;;;9.02;55.86;101242.16;5142939;27;45160;-75
2023/03/15 00:48:10;;;;;;;;;11.50;9.50;;;;;9.08;56.15;101231.78;5140189;27;45475;-69
2023/03/15 00:50:37;;;;;;;;;8.50;8.00;;;;;9.07;56.09;101228.31;5132934;27;45316;-67
2023/03/15 00:53:03;;;;;;;;;8.00;8.00;;;;;9.16;56.58;101240.66;5121010;27;45352;-71
2023/03/15 00:55:35;;;;;;;;;10.75;8.75;;;;;9.17;56.21;101242.41;5122170;27;45508;-68
2023/03/15 00:58:01;;;;;;;;;8.00;6.00;;;;;9.17;56.29;101245.00;5117936;27;45564;-67
2023/03/15 01:00:27;;;;;;;;;13.50;11.00;;;;;9.12;55.57;101236.22;5119328;27;45522;-68
2023/03/15 01:02:54;;;;;;;;;13.50;11.75;;;;;9.20;56.08;101254.63;5118773;27;45439;-67
2023/03/15 01:05:21;;;;;;;;;12.25;10.00;;;;;9.13;55.97;101254.56;5114330;27;45776;-67
2023/03/15 01:07:50;;;;;;;;;16.00;11.75;;;;;9.12;55.96;101254.50;5120711;27;45538;-67
2023/03/15 01:10:16;;;;;;;;;13.00;11.75;;;;;9.10;56.00;101262.31;5118225;27;45416;-69
2023/03/15 01:12:42;;;;;;;;;8.25;8.25;;;;;9.06;55.91;101251.78;5119733;27;46276;-66
2023/03/15 01:15:11;;;;;;;;;11.00;8.75;;;;;9.08;55.86;101266.63;5116866;27;45593;-67
2023/03/15 01:17:37;;;;;;;;;13.00;8.75;;;;;9.03;55.79;101265.69;5115605;27;45450;-67
2023/03/15 01:20:10;;;;;;;;;12.75;9.00;;;;;8.97;56.19;101259.47;5121579;27;45396;-69
2023/03/15 01:22:40;;;;;;;;;12.75;11.00;;;;;9.03;56.11;101273.53;5104759;27;46754;-67
2023/03/15 01:25:06;;;;;;;;;13.50;11.50;;;;;9.03;56.13;101275.25;5111175;27;45568;-66
2023/03/15 01:27:31;;;;;;;;;11.25;9.75;;;;;9.03;55.92;101275.25;5116296;27;45646;-72
2023/03/15 01:29:57;;;;;;;;;12.50;9.00;;;;;8.99;55.95;101274.31;5116876;27;45455;-68
2023/03/15 01:32:23;;;;;;;;;10.00;7.50;;;;;8.92;56.19;101264.63;5122035;27;46721;-68
2023/03/15 01:34:49;;;;;;;;;12.00;10.50;;;;;8.96;56.02;101263.81;5110042;27;45718;-71
2023/03/15 01:37:14;;;;;;;;;14.50;8.50;;;;;8.98;55.47;101271.69;5105301;27;45784;-68
2023/03/15 01:39:41;;;;;;;;;10.75;8.75;;;;;8.96;56.43;101273.41;5118746;27;45452;-67
2023/03/15 01:42:07;;;;;;;;;10.25;9.75;;;;;8.93;55.97;101279.44;5122675;27;46220;-68
2023/03/15 01:44:59;;;;;;;;;11.50;9.00;;;;;8.91;55.98;101278.53;5137575;27;45431;-68
2023/03/15 01:47:25;;;;;;;;;8.25;8.25;;;;;8.83;55.76;101272.31;5133712;27;45976;-69
2023/03/15 01:50:00;;;;;;;;;11.50;10.25;;;;;8.81;56.33;101279.25;5115850;27;45550;-68
2023/03/15 01:52:33;;;;;;;;;5.25;5.25;;;;;8.73;56.20;101273.84;5123533;27;46331;-69
2023/03/15 01:55:10;;;;;;;;;12.50;8.75;;;;;8.60;56.42;101269.28;5138200;27;45491;-69
2023/03/15 01:57:46;;;;;;;;;10.50;9.00;;;;;8.60;56.66;101274.50;5118760;27;45542;-67
2023/03/15 02:00:16;;;;;;;;;10.00;9.25;;;;;8.66;56.66;101290.25;5140530;27;45521;-68
2023/03/15 02:03:06;;;;;;;;;8.50;7.50;;;;;8.60;56.49;101278.00;5118905;27;46594;-65
2023/03/15 02:05:44;;;;;;;;;9.00;8.50;;;;;8.63;56.34;101285.88;5114353;27;45605;-69
2023/03/15 02:08:14;;;;;;;;;11.00;7.00;;;;;8.55;56.34;101276.16;5125996;27;45667;-68
2023/03/15 02:10:44;;;;;;;;;7.50;7.50;;;;;8.56;56.44;101288.34;5118781;27;45554;-68
2023/03/15 02:13:14;;;;;;;;;8.25;7.25;;;;;8.53;56.68;101272.63;5138398;27;46118;-70
2023/03/15 02:15:45;;;;;;;;;9.00;8.25;;;;;8.56;56.53;101290.94;5141364;27;45388;-67
2023/03/15 02:18:12;;;;;;;;;5.25;4.50;;;;;8.50;56.93;101278.69;5137719;27;45246;-69
2023/03/15 02:20:45;;;;;;;;;9.25;9.25;;;;;8.55;56.56;101279.63;5137128;27;45439;-66
2023/03/15 02:23:18;;;;;;;;;8.50;7.75;;;;;8.55;56.55;101274.41;5135283;27;45399;-71
2023/03/15 02:25:59;;;;;;;;;7.75;6.25;;;;;8.58;56.43;101281.41;5141561;27;45532;-70
2023/03/15 02:28:25;;;;;;;;;9.25;6.75;;;;;8.56;56.62;101273.53;5125869;27;45408;-68
2023/03/15 02:30:51;;;;;;;;;10.50;7.75;;;;;8.59;56.52;101281.47;5137124;27;45814;-68
2023/03/15 02:33:31;;;;;;;;;9.50;8.50;;;;;8.48;56.36;101265.56;5140723;27;45585;-71
2023/03/15 02:36:10;;;;;;;;;9.50;6.50;;;;;8.48;56.71;101267.31;5125593;27;45548;-71
2023/03/15 02:38:35;;;;;;;;;9.50;8.00;;;;;8.29;56.66;101234.72;5128307;27;45426;-69
2023/03/15 02:41:02;;;;;;;;;10.50;10.50;;;;;8.56;56.58;101288.34;5124321;27;45532;-70
2023/03/15 02:43:31;;;;;;;;;11.25;8.25;;;;;8.48;56.57;101283.84;5134683;27;46296;-68
2023/03/15 02:45:58;;;;;;;;;11.75;7.75;;;;;8.49;56.48;101280.41;5136718;27;45672;-69
2023/03/15 02:48:24;;;;;;;;;8.75;7.50;;;;;8.50;56.60;101273.44;5134893;27;45242;-68
2023/03/15 02:50:50;;;;;;;;;8.25;7.50;;;;;8.41;56.69;101261.09;5136739;27;45718;-71
2023/03/15 02:53:15;;;;;;;;;6.50;5.50;;;;;8.45;56.22;101268.13;5134982;27;46440;-70
2023/03/15 02:55:41;;;;;;;;;8.50;8.25;;;;;8.45;56.51;101273.38;5136284;27;45470;-68
2023/03/15 02:58:06;;;;;;;;;7.00;7.00;;;;;8.44;56.23;101266.38;5136294;27;45735;-69
2023/03/15 03:00:32;;;;;;;;;9.50;7.50;;;;;8.44;56.19;101271.59;5122316;27;45470;-70
2023/03/15 03:02:58;;;;;;;;;8.50;8.50;;;;;8.48;56.84;101275.16;5140566;27;46383;-69
2023/03/15 03:05:23;;;;;;;;;7.00;5.25;;;;;8.51;56.34;101280.41;5140125;27;45493;-71
2023/03/15 03:07:49;;;;;;;;;8.00;7.00;;;;;8.49;56.07;101280.41;5140733;27;45691;-68
2023/03/15 03:10:17;;;;;;;;;10.00;6.25;;;;;8.46;56.04;101292.50;5101087;27;45465;-69
2023/03/15 03:12:43;;;;;;;;;7.00;5.00;;;;;8.45;56.23;101290.75;5135599;27;45465;-70
2023/03/15 03:15:10;;;;;;;;;7.50;7.00;;;;;8.45;56.38;101285.53;5136328;27;45494;-70
2023/03/15 03:17:39;;;;;;;;;5.00;5.00;;;;;8.38;56.10;101274.06;5136129;27;45575;-70
2023/03/15 03:20:09;;;;;;;;;8.50;6.50;;;;;8.46;56.32;101300.34;5117597;27;45884;-71
2023/03/15 03:22:36;;;;;;;;;6.25;5.25;;;;;8.43;56.26;101301.16;5132597;27;45939;-70
2023/03/15 03:25:02;;;;;;;;;8.00;7.00;;;;;8.46;56.38;101308.16;5103731;27;45576;-68
2023/03/15 03:27:29;;;;;;;;;6.25;6.25;;;;;8.35;56.57;101294.88;5136577;27;45505;-66
2023/03/15 03:29:55;;;;;;;;;5.75;5.00;;;;;8.23;56.44;101298.13;5136449;27;45407;-67
2023/03/15 03:32:20;;;;;;;;;6.00;6.00;;;;;8.16;56.81;101297.94;5135682;27;46030;-69
2023/03/15 03:34:48;;;;;;;;;8.50;7.50;;;;;8.22;56.80;101303.31;5136013;27;45289;-67
2023/03/15 03:37:17;;;;;;;;;9.25;6.50;;;;;8.07;56.85;101294.31;5135899;27;45578;-66
2023/03/15 03:39:42;;;;;;;;;11.50;8.75;;;;;8.06;56.76;101302.97;5137454;27;45383;-67
2023/03/15 03:42:08;;;;;;;;;7.00;7.00;;;;;7.96;56.68;101290.59;5104362;27;47139;-71
2023/03/15 03:44:34;;;;;;;;;11.50;6.75;;;;;7.91;57.12;101302.66;5118323;27;45440;-69
2023/03/15 03:46:59;;;;;;;;;5.00;4.00;;;;;7.83;57.00;101288.53;5138185;27;45523;-70
2023/03/15 03:49:25;;;;;;;;;9.25;6.00;;;;;7.89;57.02;101293.91;5134592;27;45874;-70
2023/03/15 03:51:50;;;;;;;;;8.00;7.25;;;;;7.91;57.06;101292.22;5138749;27;46092;-71
2023/03/15 03:54:16;;;;;;;;;9.50;6.50;;;;;7.82;56.96;101289.41;5139170;27;45398;-69
2023/03/15 03:56:41;;;;;;;;;8.00;6.75;;;;;7.71;57.57;101285.66;5138572;27;45523;-68
2023/03/15 03:59:07;;;;;;;;;8.00;6.25;;;;;7.73;57.24;101297.91;5140319;27;45339;-68
2023/03/15 04:01:32;;;;;;;;;6.00;4.00;;;;;7.65;57.72;101284.69;5137426;27;46383;-73
2023/03/15 04:03:58;;;;;;;;;7.50;5.25;;;;;7.83;57.45;101312.94;5116302;27;45693;-70
2023/03/15 04:06:23;;;;;;;;;5.75;4.75;;;;;7.77;57.34;101315.38;5120167;27;45382;-68
2023/03/15 04:08:50;;;;;;;;;6.00;6.00;;;;;7.84;57.63;101324.22;5139982;27;46117;-69
2023/03/15 04:11:17;;;;;;;;;5.00;5.00;;;;;7.80;57.29;101314.56;5121364;27;46846;-69
2023/03/15 04:13:44;;;;;;;;;5.00;4.50;;;;;7.77;57.28;101314.50;5137470;27;45539;-68
2023/03/15 04:16:10;;;;;;;;;6.00;6.00;;;;;7.84;57.61;101327.72;5135450;27;45482;-70
2023/03/15 04:18:35;;;;;;;;;7.25;5.50;;;;;7.81;57.29;101317.22;5138704;27;45394;-69
2023/03/15 04:21:01;;;;;;;;;7.00;7.00;;;;;7.82;57.48;101307.66;5135869;27;45578;-69
2023/03/15 04:23:26;;;;;;;;;7.00;4.75;;;;;7.83;58.02;101315.53;5132536;27;45363;-69
2023/03/15 04:25:56;;;;;;;;;5.25;4.75;;;;;7.87;58.07;101311.25;5134655;27;45371;-68
2023/03/15 04:28:22;;;;;;;;;7.50;4.75;;;;;7.91;57.78;101317.44;5116609;27;45426;-68
2023/03/15 04:30:49;;;;;;;;;6.25;6.00;;;;;8.00;57.82;101317.63;5134481;27;45469;-69
2023/03/15 04:33:15;;;;;;;;;6.25;6.25;;;;;7.92;58.14;101306.13;5118913;27;45443;-72
2023/03/15 04:35:43;;;;;;;;;4.50;4.00;;;;;7.96;57.41;101308.84;5139553;27;45406;-68
2023/03/15 04:38:09;;;;;;;;;5.00;3.00;;;;;8.00;57.35;101313.28;5139116;27;45416;-69
2023/03/15 04:40:35;;;;;;;;;6.50;3.50;;;;;8.00;57.51;101313.28;5106710;27;46799;-71
2023/03/15 04:43:03;;;;;;;;;4.75;3.50;;;;;8.00;57.67;101310.69;5131233;27;45684;-71
2023/03/15 04:45:33;;;;;;;;;6.25;4.50;;;;;7.99;57.19;101308.03;5139135;27;45574;-67
2023/03/15 04:48:00;;;;;;;;;4.00;4.00;;;;;8.01;57.80;101311.56;5117540;27;45582;-71
2023/03/15 04:50:26;;;;;;;;;5.75;3.00;;;;;8.00;57.58;101313.28;5134671;27;46409;-67
2023/03/15 04:52:52;;;;;;;;;6.75;5.25;;;;;8.03;57.92;101313.34;5116253;27;45483;-69
2023/03/15 04:55:18;;;;;;;;;4.25;3.50;;;;;8.04;57.58;101322.94;5134625;27;45424;-70
2023/03/15 04:57:43;;;;;;;;;6.75;3.00;;;;;8.03;57.73;101323.78;5116322;27;45468;-70
2023/03/15 05:00:11;;;;;;;;;7.00;5.25;;;;;8.11;57.63;101320.47;5134473;27;46353;-69
2023/03/15 05:02:40;;;;;;;;;4.75;4.25;;;;;7.97;57.38;101308.03;5134824;27;45322;-68
2023/03/15 05:05:10;;;;;;;;;5.50;5.25;;;;;8.02;57.51;101318.53;5116300;27;45638;-68
2023/03/15 05:07:37;;;;;;;;;9.00;5.25;;;;;7.93;58.13;101319.22;5135204;27;45441;-67
2023/03/15 05:10:04;;;;;;;;;5.75;3.50;;;;;7.99;57.69;101337.59;5134080;27;46333;-71
2023/03/15 05:12:30;;;;;;;;;6.25;5.50;;;;;7.94;57.54;101330.53;5134429;27;45458;-70
2023/03/15 05:14:56;;;;;;;;;6.25;3.75;;;;;7.77;57.96;101302.34;5135225;27;45864;-68
2023/03/15 05:17:21;;;;;;;;;4.50;4.50;;;;;7.95;57.68;101345.31;5137933;27;45483;-69
2023/03/15 05:19:50;;;;;;;;;5.00;5.00;;;;;8.00;57.82;101349.81;5137983;27;45474;-70
2023/03/15 05:22:16;;;;;;;;;7.75;4.50;;;;;8.00;57.90;101351.56;5138411;27;45499;-70
2023/03/15 05:24:42;;;;;;;;;4.50;4.50;;;;;7.89;58.20;101333.03;5137922;27;45387;-69
2023/03/15 05:27:08;;;;;;;;;7.50;5.50;;;;;7.94;57.94;101343.56;5138241;27;45576;-69
2023/03/15 05:29:34;;;;;;;;;6.75;2.00;;;;;7.93;57.77;101347.03;5137504;27;45536;-70
2023/03/15 05:32:03;;;;;;;;;5.25;4.50;;;;;7.88;58.07;101343.41;5138332;27;45713;-69
2023/03/15 05:34:31;;;;;;;;;3.00;3.00;;;;;7.81;58.43;101321.56;5138247;27;45534;-71
2023/03/15 05:36:57;;;;;;;;;6.25;4.25;;;;;7.75;58.61;101332.72;5119559;27;45569;-71
2023/03/15 05:39:23;;;;;;;;;4.50;3.25;;;;;7.80;58.50;101340.66;5139700;27;45397;-70
2023/03/15 05:41:48;;;;;;;;;3.75;3.75;;;;;7.88;58.79;101353.84;5127714;27;45380;-70
2023/03/15 05:44:14;;;;;;;;;4.00;3.25;;;;;7.77;58.11;101327.53;5142413;27;45490;-72
2023/03/15 05:46:39;;;;;;;;;3.25;3.25;;;;;7.90;58.50;101340.03;5120066;27;45471;-70
2023/03/15 05:49:05;;;;;;;;;2.75;2.75;;;;;7.91;58.12;101341.78;5137949;27;46200;-70
2023/03/15 05:51:30;;;;;;;;;5.75;3.75;;;;;7.90;58.35;101352.16;5130627;27;45691;-69
2023/03/15 05:53:56;;;;;;;;;5.50;4.00;;;;;7.92;58.51;101353.09;5121221;27;45522;-68
2023/03/15 05:56:22;;;;;;;;;7.00;4.75;;;;;7.89;58.86;101351.28;5102765;27;45470;-68
2023/03/15 05:58:48;;;;;;;;;6.50;4.00;;;;;7.81;58.56;101340.69;5117432;27;45491;-66
2023/03/15 06:01:14;;;;;;;;;6.00;4.00;;;;;7.80;58.11;101341.53;5118260;27;45552;-67
2023/03/15 06:03:43;;;;;;;;;8.50;5.25;;;;;7.76;58.33;101352.75;5119238;27;45423;-67
2023/03/15 06:06:09;;;;;;;;;9.00;6.50;;;;;7.77;58.32;101361.44;5117016;27;45505;-67
2023/03/15 06:08:34;;;;;;;;;5.50;5.50;;;;;7.80;58.94;101369.34;5115953;27;45879;-67
2023/03/15 06:11:00;;;;;;;;;7.75;7.50;;;;;7.71;58.82;101362.19;5115978;27;45487;-68
2023/03/15 06:13:26;;;;;;;;;9.50;7.75;;;;;7.64;58.54;101365.50;5116626;27;45507;-69
2023/03/15 06:15:51;;;;;;;;;8.00;8.00;;;;;7.48;59.12;101337.31;5119566;27;45701;-67
2023/03/15 06:18:17;;;;;;;;;10.25;5.50;;;;;7.60;59.06;101364.53;5116104;27;46640;-68
2023/03/15 06:20:43;;;;;;;;;12.25;9.75;;;;;7.48;58.98;101337.31;5115552;27;45527;-70
2023/03/15 06:23:09;;;;;;;;;7.75;7.75;;;;;7.65;58.83;101368.13;5117877;27;45404;-70
2023/03/15 06:25:35;;;;;;;;;10.00;8.00;;;;;7.57;58.38;101359.25;5111119;27;45557;-71
2023/03/15 06:28:00;;;;;;;;;7.25;6.50;;;;;7.60;58.80;101374.09;5116064;27;46657;-68
2023/03/15 06:30:27;;;;;;;;;6.25;6.25;;;;;7.54;59.06;101361.75;5118587;27;45694;-66
2023/03/15 06:32:53;;;;;;;;;13.25;7.50;;;;;7.63;59.25;101369.81;5118720;27;45499;-68
2023/03/15 06:35:19;;;;;;;;;11.50;6.25;;;;;7.76;58.81;101371.00;5120203;27;45462;-68
2023/03/15 06:37:46;;;;;;;;;8.75;7.75;;;;;7.95;58.10;101376.63;5120224;27;45447;-67
2023/03/15 06:40:11;;;;;;;;;8.75;8.00;;;;;8.00;58.46;101378.50;5120143;27;45582;-69
2023/03/15 06:42:38;;;;;;;;;8.00;7.75;;;;;8.08;57.56;101370.84;5115807;27;45447;-67
2023/03/15 06:45:05;;;;;;;;;5.75;5.75;;;;;8.17;57.80;101385.84;5134059;27;45417;-67
2023/03/15 06:47:31;;;;;;;;;11.25;7.50;;;;;8.19;57.78;101378.94;5120703;27;47215;-70
2023/03/15 06:49:56;;;;;;;;;9.50;7.75;;;;;8.29;57.27;101386.97;5116104;27;45768;-68
2023/03/15 06:52:22;;;;;;;;;9.50;8.25;;;;;8.33;57.53;101387.03;5136765;27;45444;-67
2023/03/15 06:54:50;;;;;;;;;7.25;4.00;;;;;8.39;57.22;101379.34;5137153;27;45836;-73
2023/03/15 06:57:16;;;;;;;;;9.00;7.50;;;;;8.55;57.14;101398.88;5139670;27;45573;-72
2023/03/15 06:59:41;;;;;;;;;8.75;7.00;;;;;8.57;56.79;101389.34;5136110;27;45576;-70
2023/03/15 07:02:17;;;;;;;;;9.00;7.25;;;;;8.69;56.96;101397.41;5136631;27;45465;-69
2023/03/15 07:05:03;;;;;;;;;8.50;7.25;;;;;8.67;56.69;101386.94;5129866;27;45392;-68
2023/03/15 07:07:30;;;;;;;;;3.50;3.00;;;;;8.74;56.39;101395.78;5137116;27;46156;-69
2023/03/15 07:09:58;;;;;;;;;6.25;5.75;;;;;8.79;56.34;101398.47;5122093;27;45409;-66
2023/03/15 07:12:29;;;;;;;;;7.00;7.00;;;;;8.78;56.32;101381.03;5140194;27;45557;-67
2023/03/15 07:14:56;;;;;;;;;6.50;6.50;;;;;8.95;56.33;101397.94;5136940;27;45541;-66
2023/03/15 07:17:27;;;;;;;;;8.00;5.50;;;;;8.98;55.86;101391.88;5117914;27;46278;-70
2023/03/15 07:19:52;;;;;;;;;8.50;6.25;;;;;9.11;55.92;101404.31;5117277;27;45947;-71
2023/03/15 07:22:18;;;;;;;;;9.00;8.00;;;;;9.21;55.48;101406.25;5136860;27;45313;-70
2023/03/15 07:24:45;;;;;;;;;6.25;5.75;;;;;9.30;55.33;101401.19;5127979;27;45683;-69
2023/03/15 07:27:12;;;;;;;;;11.25;7.00;;;;;9.36;55.04;101403.03;5115017;27;45577;-66
2023/03/15 07:29:38;;;;;;;;;8.75;7.75;;;;;9.43;55.12;101411.88;5114795;27;45792;-67
2023/03/15 07:32:05;;;;;;;;;10.50;9.00;;;;;9.49;54.97;101415.47;5119128;27;45375;-67
2023/03/15 07:34:31;;;;;;;;;9.50;8.25;;;;;9.45;54.91;101394.47;5099034;27;45460;-71
2023/03/15 07:36:57;;;;;;;;;10.25;8.00;;;;;9.58;54.37;101404.28;5114545;27;45608;-68
2023/03/15 07:39:24;;;;;;;;;11.00;8.00;;;;;9.69;54.58;101420.16;5113230;27;45443;-70
2023/03/15 07:41:55;;;;;;;;;8.50;7.75;;;;;9.65;54.48;101416.59;5117235;27;45556;-69
2023/03/15 07:44:21;;;;;;;;;8.75;8.75;;;;;9.74;54.62;101431.56;5115321;27;45616;-69
2023/03/15 07:46:47;;;;;;;;;10.50;7.25;;;;;9.83;54.24;101428.25;5120082;27;45503;-71
2023/03/15 07:49:12;;;;;;;;;8.25;7.25;;;;;9.92;54.59;101425.78;5100757;27;45478;-69
2023/03/15 07:51:41;;;;;;;;;8.50;7.50;;;;;9.97;53.97;101421.47;5113452;27;45571;-68
2023/03/15 07:54:07;;;;;;;;;8.25;6.75;;;;;10.10;54.07;101430.38;5101334;27;45499;-71
2023/03/15 07:56:33;;;;;;;;;9.00;7.50;;;;;10.10;53.82;101419.91;5114478;27;46023;-71
2023/03/15 07:58:58;;;;;;;;;8.00;6.25;;;;;10.17;54.12;101432.25;5117884;27;45930;-71
2023/03/15 08:01:24;;;;;;;;;10.75;8.50;;;;;10.21;53.54;101423.59;5114920;27;45335;-70
2023/03/15 08:03:51;;;;;;;;;10.00;8.00;;;;;10.29;53.67;101431.56;5116168;27;45764;-70
2023/03/15 08:06:16;;;;;;;;;9.75;5.50;;;;;10.39;53.76;101442.22;5127543;27;45967;-69
2023/03/15 08:08:42;;;;;;;;;10.75;8.00;;;;;10.38;53.38;101434.31;5118948;27;45534;-68
2023/03/15 08:11:07;;;;;;;;;8.50;7.50;;;;;10.46;53.18;101453.63;5118990;27;45309;-67
2023/03/15 08:13:35;;;;;;;;;10.25;8.25;;;;;10.40;53.32;101432.63;5119016;27;45481;-68
2023/03/15 08:16:00;;;;;;;;;8.25;7.00;;;;;10.53;53.29;101445.00;5118794;27;45472;-68
2023/03/15 08:18:27;;;;;;;;;9.00;5.00;;;;;10.45;53.51;101441.41;5115579;27;45404;-68
2023/03/15 08:20:54;;;;;;;;;5.00;5.00;;;;;10.59;53.29;101455.56;5113908;27;45578;-68
2023/03/15 08:23:20;;;;;;;;;9.25;6.25;;;;;10.66;52.89;101443.44;5117095;27;45422;-68
2023/03/15 08:25:47;;;;;;;;;8.25;6.25;;;;;10.81;53.01;101455.84;5113953;27;45431;-68
2023/03/15 08:28:13;;;;;;;;;6.75;6.75;;;;;10.83;52.37;101459.38;5116739;27;45394;-66
2023/03/15 08:30:39;;;;;;;;;7.75;6.25;;;;;10.75;52.78;101458.41;5114279;27;45552;-69
2023/03/15 08:33:06;;;;;;;;;5.00;4.00;;;;;10.86;52.55;101458.53;5108868;27;45787;-70
2023/03/15 08:35:33;;;;;;;;;7.25;7.00;;;;;10.86;52.22;101459.41;5113335;27;46290;-69
2023/03/15 08:38:01;;;;;;;;;8.00;7.50;;;;;10.95;52.51;101466.50;5113799;27;45494;-69
2023/03/15 08:40:29;;;;;;;;;7.25;6.75;;;;;11.08;52.71;101464.91;5114123;27;45485;-71
2023/03/15 08:42:55;;;;;;;;;8.25;7.50;;;;;10.79;51.53;101398.16;5130879;27;45514;-69
2023/03/15 08:45:23;;;;;;;;;5.25;5.00;;;;;11.34;52.28;101473.97;5136420;27;45407;-68
2023/03/15 08:47:52;;;;;;;;;12.75;9.50;;;;;11.38;51.42;101462.59;5134449;27;45359;-67
2023/03/15 08:50:18;;;;;;;;;8.75;8.75;;;;;11.55;51.68;101465.41;5137505;27;45917;-68
2023/03/15 08:52:45;;;;;;;;;6.75;6.75;;;;;11.61;51.55;101465.47;5138386;27;45481;-69
2023/03/15 08:55:13;;;;;;;;;8.25;8.00;;;;;11.73;51.23;101467.31;5119948;27;47949;-70
2023/03/15 08:57:39;;;;;;;;;10.50;8.75;;;;;11.88;50.71;101482.34;5112828;27;45337;-67
2023/03/15 09:00:08;;;;;;;;;10.50;10.00;;;;;11.96;50.40;101474.53;5126766;27;45367;-70
2023/03/15 09:02:34;;;;;;;;;4.75;4.75;;;;;12.02;50.66;101472.84;5116319;27;45447;-69
2023/03/15 09:05:05;;;;;;;;;8.25;6.50;;;;;12.13;50.03;101472.94;5117910;27;46298;-67
2023/03/15 09:07:32;;;;;;;;;5.00;5.00;;;;;12.26;50.07;101480.03;5117395;27;45530;-69
2023/03/15 09:09:57;;;;;;;;;7.25;5.75;;;;;12.25;49.24;101480.91;5116547;27;45613;-68
2023/03/15 09:12:23;;;;;;;;;10.25;7.25;;;;;12.13;49.78;101478.19;5117155;27;45723;-68
2023/03/15 09:14:48;;;;;;;;;9.00;7.50;;;;;11.99;49.95;101466.72;5117089;27;45508;-69
2023/03/15 09:17:14;;;;;;;;;4.25;4.25;;;;;12.31;49.84;101493.19;5116580;27;45602;-70
2023/03/15 09:19:40;;;;;;;;;7.00;6.25;;;;;12.49;49.76;101488.06;5117296;27;45378;-69
2023/03/15 09:22:06;;;;;;;;;6.50;5.00;;;;;12.61;49.34;101487.25;5119360;27;45608;-70
2023/03/15 09:24:31;;;;;;;;;9.25;5.00;;;;;12.78;49.06;101494.34;5118812;27;46204;-70
2023/03/15 09:26:57;;;;;;;;;7.75;5.50;;;;;12.83;48.93;101479.47;5121084;27;45312;-69
2023/03/15 09:29:22;;;;;;;;;5.00;4.00;;;;;12.94;48.33;101477.78;5121832;27;45503;-67
2023/03/15 09:31:48;;;;;;;;;6.25;3.00;;;;;13.09;48.33;101487.47;5121488;27;45380;-69
2023/03/15 09:34:14;;;;;;;;;3.50;3.00;;;;;13.19;47.81;101491.88;5120988;27;45482;-68
2023/03/15 09:36:39;;;;;;;;;4.00;4.00;;;;;13.16;48.31;101486.63;5108351;27;45447;-69
2023/03/15 09:39:05;;;;;;;;;5.00;4.00;;;;;13.23;47.85;101484.88;5111716;27;45334;-69
2023/03/15 09:41:45;;;;;;;;;3.67;2.67;;;;;13.23;47.83;101488.41;5114975;27;45517;-67
2023/03/15 09:46:21;;;;;;;;;3.33;2.67;;;;;13.15;47.87;101500.66;5073473;27;45350;-67
2023/03/15 09:49:25;;;;;;;;;3.00;3.00;;;;;13.14;47.95;101497.16;5067452;28;45389;-70
2023/03/15 09:52:05;;;;;;;;;7.00;6.00;;;;;13.03;47.84;101483.09;5060464;27;45512;-70
2023/03/15 09:54:43;;;;;;;;;6.00;5.00;;;;;13.19;47.98;101498.91;5064392;28;45512;-70
2023/03/15 09:57:16;;;;;;;;;6.75;6.00;;;;;13.33;47.84;101492.84;5057131;28;45552;-68
2023/03/15 09:59:46;;;;;;;;;4.67;4.67;;;;;13.42;47.08;101481.47;5055947;28;45495;-68
2023/03/15 10:02:26;;;;;;;;;8.00;4.00;;;;;13.51;46.83;101484.13;5058902;28;46230;-69
2023/03/15 10:05:00;;;;;;;;;3.67;3.67;;;;;13.56;46.49;101482.38;5057141;28;45400;-66
2023/03/15 10:07:26;;;;;;;;;4.33;4.00;;;;;13.67;47.13;101485.03;5058084;28;46480;-68
2023/03/15 10:09:51;;;;;;;;;5.00;4.00;;;;;13.74;46.89;101480.66;5065192;28;45549;-69
2023/03/15 10:13:01;;;;;;;;;6.33;4.00;;;;;13.79;47.37;101492.06;5062681;28;45507;-72
2023/03/15 10:15:37;;;;;;;;;3.67;3.33;;;;;13.57;47.09;101478.88;5057344;28;45394;-68
2023/03/15 10:18:14;;;;;;;;;7.00;2.00;;;;;13.56;46.82;101490.25;5061673;28;45479;-68
2023/03/15 10:20:48;;;;;;;;;3.00;3.00;;;;;13.48;47.16;101470.97;5059482;28;45629;-66
2023/03/15 10:23:36;;;;;;;;;3.67;2.00;;;;;13.72;46.94;101477.13;5061083;28;45799;-67
2023/03/15 10:26:09;;;;;;;;;3.00;1.67;;;;;13.72;45.76;101469.25;5058475;28;46159;-70
2023/03/15 10:28:36;;;;;;;;;3.00;2.00;;;;;13.84;45.88;101479.78;5055126;28;45488;-68
2023/03/15 10:31:14;;;;;;;;;2.67;2.00;;;;;14.06;45.47;101480.63;5059701;28;45894;-67
2023/03/15 10:33:41;;;;;;;;;1.67;1.00;;;;;13.99;46.30;101424.44;5055256;28;45521;-68
2023/03/15 10:36:22;;;;;;;;;2.33;1.00;;;;;14.37;48.56;101476.22;5059680;28;45966;-66
2023/03/15 10:38:49;;;;;;;;;1.67;0.67;;;;;14.42;46.34;101471.78;5054973;28;45550;-69
2023/03/15 10:41:48;;;;;;;;;1.33;1.33;;;;;14.47;45.45;101469.16;5065575;27;45473;-67
2023/03/15 10:44:23;;;;;;;;;0.67;0.67;;;;;14.47;45.77;101470.91;5072202;27;45452;-67
2023/03/15 10:47:19;;;;;;;;;1.00;1.00;;;;;14.34;44.72;101470.09;5072204;27;45583;-69
2023/03/15 10:49:45;;;;;;;;;0.67;0.00;;;;;14.24;44.55;101444.59;5068566;27;45345;-70
2023/03/15 10:52:34;;;;;;;;;1.67;0.00;;;;;14.40;44.63;101463.03;5073124;27;45318;-66
2023/03/15 10:55:26;;;;;;;;;2.00;1.00;;;;;14.56;44.06;101460.38;5072194;28;45237;-67
2023/03/15 10:57:56;;;;;;;;;0.00;0.00;;;;;14.47;44.29;101452.47;5060319;28;45631;-67
2023/03/15 11:00:31;;;;;;;;;1.00;1.00;;;;;14.46;43.92;101461.28;5057637;28;46534;-69
2023/03/15 11:03:02;;;;;;;;;1.00;1.00;;;;;14.61;44.44;101455.97;5056240;28;45547;-69
2023/03/15 11:05:42;;;;;;;;;1.33;1.33;;;;;14.97;43.63;101457.63;5058187;28;45564;-71
2023/03/15 11:08:14;;;;;;;;;1.00;1.00;;;;;14.90;42.76;101455.00;5057233;28;45705;-68
2023/03/15 11:10:39;;;;;;;;;1.67;0.33;;;;;14.82;42.26;101457.66;5033876;28;47001;-66
2023/03/15 11:13:11;;;;;;;;;2.00;0.00;;;;;15.27;41.86;101463.59;5044207;28;45599;-67
2023/03/15 11:15:38;;;;;;;;;2.67;1.00;;;;;17.55;38.20;101454.19;5055418;28;45385;-68
2023/03/15 11:18:04;;;;;;;;;1.00;1.00;;;;;19.18;34.99;101401.63;5055621;28;45505;-69
2023/03/15 11:20:37;;;;;;;;;1.00;1.00;;;;;20.56;32.45;101436.28;5057205;28;46583;-69
2023/03/15 11:23:21;;;;;;;;;0.67;0.67;;;;;21.24;29.89;101443.13;5055615;28;45496;-69
2023/03/15 11:25:46;;;;;;;;;1.00;1.00;;;;;22.73;29.21;101441.63;5054374;28;45517;-69
2023/03/15 11:28:19;;;;;;;;;1.67;1.67;;;;;23.80;27.25;101435.66;5059117;28;45929;-69
2023/03/15 11:30:46;;;;;;;;;2.00;2.00;;;;;24.53;26.78;101437.81;5055869;28;45346;-69
2023/03/15 11:33:25;;;;;;;;;1.00;1.00;;;;;24.44;25.58;101431.97;5056294;28;45410;-69
2023/03/15 11:35:52;;;;;;;;;1.00;1.00;;;;;24.78;25.15;101442.06;5059388;28;45362;-69
2023/03/15 11:38:34;;;;;;;;;2.33;1.00;;;;;22.61;26.19;101421.59;5056608;28;45730;-69